Shenley AV, United Kingdom
Current Conditions -  °F | °C
As of 3:50 PM on Friday 19 Dec 2014 (Local Time) from EGWU Reporting Station
Few Clouds Few Clouds  
Wind Chill: 40°   Ceiling: Unl
Heat Index: 46°   Visibility: 6mi
Dew Point: 36°   Wind: 15mph
Humidity: 66%   Direction: 270°W
Pressure: 30.03"   Gusts: NA
Location:  51.69°N, 0.28°W
Report Text: EGWU 191550Z 27013KT 9999 FEW040 08/02 Q1017 NOSIG
Loading
Personal Weather Stations






























Interactive Weather Map New forecast layout! Learn more

10-Day Weather Forecast

Advertisements
Track Severe Weather on mobile